createdAt,value
2024-01-11T00:00:50.687Z,80.5
2024-01-11T00:02:06.630Z,80.6
2024-01-11T00:03:22.825Z,80.3
2024-01-11T00:04:39.019Z,80.2
2024-01-11T00:05:54.475Z,80.2
2024-01-11T00:07:10.424Z,80
2024-01-11T00:08:26.619Z,79.9
2024-01-11T00:09:42.813Z,79.7
2024-01-11T00:10:59.254Z,79.9
2024-01-11T00:12:15.203Z,80
2024-01-11T00:13:31.645Z,80
2024-01-11T00:14:47.592Z,80.3
2024-01-11T00:16:03.786Z,80.3
2024-01-11T00:17:14.000Z,80.7
2024-01-11T00:17:19.980Z,80.3
2024-01-11T00:18:36.175Z,80.6
2024-01-11T00:21:08.563Z,80.6
2024-01-11T00:22:23.774Z,80.8
2024-01-11T00:23:40.212Z,81.3
2024-01-11T00:24:56.163Z,81.1
2024-01-11T00:26:12.358Z,80.9
2024-01-11T00:27:28.552Z,80.8
2024-01-11T00:28:45.001Z,80.6
2024-01-11T00:30:00.941Z,80.8
2024-01-11T00:31:17.135Z,81
2024-01-11T00:32:33.329Z,80.6
2024-01-11T00:33:49.769Z,80.1
2024-01-11T00:35:05.718Z,79.5
2024-01-11T00:36:22.163Z,79.3
2024-01-11T00:37:38.107Z,79.3
2024-01-11T00:38:53.317Z,79.1
2024-01-11T00:40:09.511Z,79
2024-01-11T00:41:25.948Z,79.3
2024-01-11T00:42:41.900Z,79.5
2024-01-11T00:43:58.095Z,79.9
2024-01-11T00:45:14.290Z,79.8
2024-01-11T00:46:29.505Z,79.9
2024-01-11T00:47:45.699Z,80.1
2024-01-11T00:49:02.137Z,80.3
2024-01-11T00:50:18.332Z,80.3
2024-01-11T00:51:34.530Z,80.6
2024-01-11T00:52:50.477Z,80.7
2024-01-11T00:54:06.671Z,80.7
2024-01-11T00:55:22.866Z,80.8
2024-01-11T00:56:33.000Z,80.8
2024-01-11T00:56:39.301Z,80.8
2024-01-11T00:57:49.000Z,80.6
2024-01-11T00:57:55.254Z,80.9
2024-01-11T01:01:44.082Z,80.4
2024-01-11T01:02:59.049Z,80.4
2024-01-11T01:04:15.488Z,80.5
2024-01-11T01:05:31.683Z,80.6
2024-01-11T01:06:47.631Z,80.7
2024-01-11T01:08:03.826Z,80.8
2024-01-11T01:09:17.000Z,80.8
2024-01-11T01:10:36.215Z,80.8
2024-01-11T01:11:52.410Z,80.7
2024-01-11T01:13:08.604Z,80.9
2024-01-11T01:14:25.044Z,81
2024-01-11T01:15:40.992Z,81.1
2024-01-11T01:16:57.438Z,81.3
2024-01-11T01:18:13.382Z,81.2
2024-01-11T01:19:28.837Z,81.1
2024-01-11T01:20:44.787Z,81.2
2024-01-11T01:22:01.225Z,81.1
2024-01-11T01:23:17.176Z,81.1
2024-01-11T01:24:33.370Z,81.1
2024-01-11T01:25:49.564Z,81.4
2024-01-11T01:27:05.998Z,81.4
2024-01-11T01:28:21.953Z,81.5
2024-01-11T01:29:32.000Z,81.1
2024-01-11T01:29:38.147Z,81.5
2024-01-11T01:30:54.342Z,81.3
2024-01-11T01:33:26.730Z,81.1
2024-01-11T01:34:43.170Z,81
2024-01-11T01:35:58.380Z,81
2024-01-11T01:37:14.330Z,81.1
2024-01-11T01:38:30.779Z,81.1
2024-01-11T01:39:46.966Z,81.1
2024-01-11T01:41:02.914Z,81.4
2024-01-11T01:42:19.354Z,81.6
2024-01-11T01:43:35.549Z,81.4
2024-01-11T01:44:51.498Z,81.2
2024-01-11T01:46:07.935Z,81.2
2024-01-11T01:47:20.000Z,81.3
2024-01-11T01:48:40.080Z,81.3
2024-01-11T01:49:56.275Z,81.5
2024-01-11T01:51:12.470Z,81.5
2024-01-11T01:52:27.924Z,81.4
2024-01-11T01:53:43.875Z,81.6
2024-01-11T01:55:00.316Z,81.5
2024-01-11T01:56:16.263Z,81.5
2024-01-11T01:57:32.697Z,81.4
2024-01-11T01:58:48.652Z,81.5
2024-01-11T02:00:01.000Z,81.6
2024-01-11T02:01:21.041Z,81.4
2024-01-11T02:02:37.235Z,81.6
2024-01-11T02:03:53.430Z,81.8
2024-01-11T02:05:09.624Z,81.7
2024-01-11T02:06:25.818Z,81.5
2024-01-11T02:07:42.258Z,81.5
2024-01-11T02:08:57.224Z,81.5
2024-01-11T02:10:13.418Z,81.5
2024-01-11T02:11:29.612Z,81.3
2024-01-11T02:12:42.000Z,81.4
2024-01-11T02:14:02.001Z,81.4
2024-01-11T02:15:18.196Z,81.4
2024-01-11T02:16:34.390Z,81.2
2024-01-11T02:17:50.829Z,81.3
2024-01-11T02:19:06.779Z,81.3
2024-01-11T02:20:23.219Z,81.2
2024-01-11T02:21:39.167Z,81.3
2024-01-11T02:22:55.618Z,81.3
2024-01-11T02:24:11.557Z,81.5
2024-01-11T02:25:20.000Z,81.8
2024-01-11T02:25:26.767Z,81.6
2024-01-11T02:26:42.962Z,81.7
2024-01-11T02:29:09.000Z,81.8
2024-01-11T02:29:15.351Z,81.8
2024-01-11T02:30:31.545Z,81.8
2024-01-11T02:32:57.000Z,81.7
2024-01-11T02:33:03.934Z,81.5
2024-01-11T02:34:20.128Z,81.6
2024-01-11T02:36:52.517Z,81.8
2024-01-11T02:38:08.952Z,81.8
2024-01-11T02:39:24.905Z,81.8
2024-01-11T02:40:41.100Z,82.2
2024-01-11T02:41:50.000Z,82.1
2024-01-11T02:41:56.311Z,82.2
2024-01-11T02:43:12.505Z,82
2024-01-11T02:45:45.136Z,82.2
2024-01-11T02:47:01.089Z,82.2
2024-01-11T02:48:17.283Z,82.1
2024-01-11T02:49:33.477Z,82.4
2024-01-11T02:50:49.920Z,82.4
2024-01-11T02:52:05.866Z,82.5
2024-01-11T02:53:22.061Z,82.5
2024-01-11T02:54:38.255Z,82.5
2024-01-11T02:55:54.702Z,82.5
2024-01-11T02:57:10.644Z,82.6
2024-01-11T02:58:26.106Z,82.6
2024-01-11T02:59:42.049Z,82.9
2024-01-11T03:00:52.000Z,82.8
2024-01-11T03:00:58.244Z,82.9
2024-01-11T03:02:14.438Z,82.8
2024-01-11T03:04:46.827Z,82.9
2024-01-11T03:06:03.021Z,82.8
2024-01-11T03:07:19.215Z,82.9
2024-01-11T03:08:35.669Z,82.7
2024-01-11T03:09:51.604Z,82.6
2024-01-11T03:11:07.799Z,82.4
2024-01-11T03:12:23.993Z,82.4
2024-01-11T03:13:40.440Z,82.3
2024-01-11T03:14:55.398Z,82.3
2024-01-11T03:16:05.000Z,82.4
2024-01-11T03:16:11.592Z,82.3
2024-01-11T03:17:27.786Z,82.5
2024-01-11T03:20:00.176Z,82.5
2024-01-11T03:21:10.000Z,82.6
2024-01-11T03:21:16.371Z,82.5
2024-01-11T03:22:26.000Z,82.5
2024-01-11T03:22:32.565Z,82.6
2024-01-11T03:26:18.000Z,82.7
2024-01-11T03:27:37.342Z,82.9
2024-01-11T03:28:53.537Z,82.9
2024-01-11T03:30:09.732Z,83.2
2024-01-11T03:31:18.000Z,83.2
2024-01-11T03:31:24.943Z,83.2
2024-01-11T03:32:41.137Z,83.2
2024-01-11T03:35:13.526Z,83.2
2024-01-11T03:36:26.000Z,83.2
2024-01-11T03:37:45.914Z,83
2024-01-11T03:39:02.109Z,82.9
2024-01-11T03:40:18.303Z,82.9
2024-01-11T03:41:31.000Z,83
2024-01-11T03:42:50.692Z,83.3
2024-01-11T03:44:06.886Z,83.2
2024-01-11T03:45:23.081Z,83.2
2024-01-11T03:46:39.275Z,83.2
2024-01-11T03:47:54.486Z,83.3
2024-01-11T03:49:07.000Z,83.3
2024-01-11T03:50:26.874Z,83.8
2024-01-11T03:51:43.310Z,84
2024-01-11T03:52:59.506Z,83.9
2024-01-11T03:54:09.000Z,83.9
2024-01-11T03:54:12.000Z,83.7
2024-01-11T03:55:31.654Z,83.7
2024-01-11T03:58:01.000Z,83.9
2024-01-11T03:59:20.481Z,83.8
2024-01-11T04:00:30.000Z,83.8
2024-01-11T04:00:36.431Z,83.8
2024-01-11T04:01:49.000Z,83.9
2024-01-11T04:04:21.000Z,83.8
2024-01-11T04:05:40.226Z,83.7
2024-01-11T04:06:53.000Z,83.8
2024-01-11T04:08:12.615Z,83.7
2024-01-11T04:09:28.810Z,83.6
2024-01-11T04:10:45.004Z,83.5
2024-01-11T04:12:01.447Z,83.6
2024-01-11T04:13:17.393Z,83.6
2024-01-11T04:14:33.835Z,83.7
2024-01-11T04:15:49.782Z,83.8
2024-01-11T04:17:05.976Z,83.6
2024-01-11T04:18:22.171Z,83.7
2024-01-11T04:19:35.000Z,83.7
2024-01-11T04:20:53.576Z,83.6
2024-01-11T04:22:09.770Z,83.7
2024-01-11T04:23:25.964Z,83.6
2024-01-11T04:24:39.000Z,83.5
2024-01-11T04:25:58.354Z,83.5
2024-01-11T04:27:14.549Z,83.4
2024-01-11T04:28:24.000Z,83.4
2024-01-11T04:28:30.743Z,83.4
2024-01-11T04:29:46.937Z,83.5
2024-01-11T04:32:16.000Z,83.5
2024-01-11T04:33:35.520Z,83.6
2024-01-11T04:34:51.715Z,83.6
2024-01-11T04:36:07.910Z,83.7
2024-01-11T04:37:23.121Z,83.8
2024-01-11T04:38:39.315Z,83.7
2024-01-11T04:39:55.759Z,83.8
2024-01-11T04:41:11.704Z,83.9
2024-01-11T04:42:28.146Z,83.7
2024-01-11T04:43:44.093Z,83.6
2024-01-11T04:45:00.287Z,83.4
2024-01-11T04:46:16.482Z,83.3
2024-01-11T04:47:26.000Z,83.2
2024-01-11T04:47:32.676Z,83.2
2024-01-11T04:48:48.870Z,83.2
2024-01-11T04:51:21.259Z,83.2
2024-01-11T04:52:37.454Z,82.9
2024-01-11T04:53:52.665Z,82.9
2024-01-11T04:55:08.859Z,83
2024-01-11T04:56:25.053Z,83.2
2024-01-11T04:57:41.247Z,83.4
2024-01-11T04:58:57.443Z,83.6
2024-01-11T05:00:13.637Z,83.8
2024-01-11T05:01:28.853Z,84.3
2024-01-11T05:02:45.048Z,84.1
2024-01-11T05:04:01.242Z,83.8
2024-01-11T05:05:17.671Z,83.7
2024-01-11T05:06:33.631Z,83.9
2024-01-11T05:07:46.000Z,84
2024-01-11T05:09:06.020Z,84
2024-01-11T05:10:19.000Z,83.9
2024-01-11T05:11:38.409Z,83.7
2024-01-11T05:12:51.000Z,83.5
2024-01-11T05:14:10.798Z,83.8
2024-01-11T05:15:26.992Z,83.8
2024-01-11T05:16:43.186Z,83.5
2024-01-11T05:17:58.397Z,83.3
2024-01-11T05:19:14.591Z,83.4
2024-01-11T05:20:30.786Z,83.3
2024-01-11T05:21:46.981Z,83.2
2024-01-11T05:23:03.176Z,83.3
2024-01-11T05:24:19.370Z,83.2
2024-01-11T05:25:32.000Z,83.2
2024-01-11T05:26:51.759Z,83.3
2024-01-11T05:28:08.198Z,83.2
2024-01-11T05:29:24.147Z,83
2024-01-11T05:30:40.590Z,82.9
2024-01-11T05:31:56.537Z,82.8
2024-01-11T05:33:12.732Z,82.9
2024-01-11T05:34:27.943Z,83.2
2024-01-11T05:35:44.137Z,83.2
2024-01-11T05:37:00.331Z,83.2
2024-01-11T05:38:16.525Z,83.2
2024-01-11T05:39:32.719Z,83.2
2024-01-11T05:40:49.161Z,83.4
2024-01-11T05:42:05.108Z,83.3
2024-01-11T05:43:21.542Z,83
2024-01-11T05:44:37.499Z,83
2024-01-11T05:45:53.936Z,82.9
2024-01-11T05:47:09.889Z,82.8
2024-01-11T05:48:26.322Z,82.8
2024-01-11T05:49:42.280Z,82.7
2024-01-11T05:50:57.492Z,82.6
2024-01-11T05:52:07.000Z,82.7
2024-01-11T05:52:13.688Z,82.4
2024-01-11T05:53:29.883Z,82.6
2024-01-11T05:56:02.516Z,82.6
2024-01-11T05:57:18.471Z,82.5
2024-01-11T05:58:34.666Z,82.4
2024-01-11T05:59:50.862Z,82.3
2024-01-11T06:01:07.057Z,82.7
2024-01-11T06:02:23.252Z,82.9
2024-01-11T06:03:33.000Z,83.7
2024-01-11T06:03:39.448Z,83.4
2024-01-11T06:04:55.644Z,83.4
2024-01-11T06:07:27.052Z,83.7
2024-01-11T06:08:43.486Z,83.6
2024-01-11T06:09:53.000Z,83.2
2024-01-11T06:09:59.444Z,83.6
2024-01-11T06:11:15.640Z,83.4
2024-01-11T06:13:41.000Z,82.9
2024-01-11T06:13:48.033Z,83.2
2024-01-11T06:15:04.230Z,83.2
2024-01-11T06:17:36.622Z,82.9
2024-01-11T06:18:52.818Z,82.8
2024-01-11T06:20:09.015Z,82.7
2024-01-11T06:21:25.211Z,82.5
2024-01-11T06:22:41.408Z,82.7
2024-01-11T06:23:56.620Z,82.7
2024-01-11T06:25:12.816Z,82.6
2024-01-11T06:26:29.012Z,82.5
2024-01-11T06:27:45.209Z,82.6
2024-01-11T06:28:58.000Z,82.7
2024-01-11T06:30:17.601Z,82.9
2024-01-11T06:31:34.044Z,83.1
2024-01-11T06:32:49.994Z,83.1
2024-01-11T06:34:06.190Z,83.1
2024-01-11T06:35:22.387Z,83
2024-01-11T06:36:38.832Z,83.3
2024-01-11T06:37:54.780Z,83.6
2024-01-11T06:39:10.976Z,83.8
2024-01-11T06:40:26.188Z,83.9
2024-01-11T06:41:42.384Z,83.8
2024-01-11T06:42:58.581Z,83.7
2024-01-11T06:44:14.777Z,83.7
2024-01-11T06:45:30.973Z,83.9
2024-01-11T06:46:47.421Z,83.9
2024-01-11T06:48:03.366Z,83.8
2024-01-11T06:49:19.562Z,84
2024-01-11T06:50:35.759Z,84
2024-01-11T06:51:48.000Z,84.2
2024-01-11T06:53:02.000Z,84.5
2024-01-11T06:53:08.152Z,84.4
2024-01-11T06:54:17.000Z,84.5
2024-01-11T06:54:21.000Z,84.4
2024-01-11T06:58:11.954Z,84.4
2024-01-11T06:59:28.391Z,84.7
2024-01-11T07:00:44.347Z,84.8
2024-01-11T07:02:00.543Z,84.6
2024-01-11T07:03:16.740Z,84.7
2024-01-11T07:04:26.000Z,84.8
2024-01-11T07:04:29.000Z,84.8
2024-01-11T07:05:49.132Z,84.8
2024-01-11T07:08:21.525Z,85
2024-01-11T07:09:37.721Z,85
2024-01-11T07:10:54.163Z,84.9
2024-01-11T07:12:10.355Z,85
2024-01-11T07:13:25.327Z,84.8
2024-01-11T07:14:41.522Z,85
2024-01-11T07:15:51.000Z,85
2024-01-11T07:15:57.719Z,85.1
2024-01-11T07:17:10.000Z,85.1
2024-01-11T07:19:46.308Z,84.9
2024-01-11T07:21:02.505Z,85
2024-01-11T07:22:18.937Z,85
2024-01-11T07:23:34.898Z,84.8
2024-01-11T07:24:51.348Z,84.9
2024-01-11T07:26:07.291Z,84.9
2024-01-11T07:27:23.487Z,84.9
2024-01-11T07:28:39.684Z,84.8
2024-01-11T07:29:54.896Z,84.9
2024-01-11T07:31:11.093Z,85.3
2024-01-11T07:32:27.289Z,85.7
2024-01-11T07:33:43.486Z,86
2024-01-11T07:34:59.682Z,85.7
2024-01-11T07:36:15.879Z,85.7
2024-01-11T07:37:32.325Z,85.6
2024-01-11T07:38:48.272Z,85.6
2024-01-11T07:40:04.468Z,85.7
2024-01-11T07:41:20.665Z,85.8
2024-01-11T07:42:33.000Z,86
2024-01-11T07:43:53.058Z,85.6
2024-01-11T07:45:09.255Z,85.5
2024-01-11T07:46:24.468Z,85.5
2024-01-11T07:47:40.903Z,85.9
2024-01-11T07:48:56.860Z,85.9
2024-01-11T07:50:13.056Z,86.2
2024-01-11T07:51:29.252Z,86.5
2024-01-11T07:52:45.449Z,86.6
2024-01-11T07:54:01.646Z,86.4
2024-01-11T07:55:17.842Z,86.3
2024-01-11T07:56:34.039Z,86.5
2024-01-11T07:57:50.235Z,86.5
2024-01-11T07:59:06.431Z,86.4
2024-01-11T08:00:22.628Z,86
2024-01-11T08:01:38.824Z,85.8
2024-01-11T08:02:54.036Z,86.2
2024-01-11T08:04:10.233Z,86.4
2024-01-11T08:05:26.430Z,86.3
2024-01-11T08:06:42.626Z,86.2
2024-01-11T08:07:58.823Z,86.2
2024-01-11T08:09:15.019Z,85.9
2024-01-11T08:10:31.215Z,85.7
2024-01-11T08:11:47.412Z,85.9
2024-01-11T08:13:00.000Z,85.7
2024-01-11T08:14:19.805Z,85.7
2024-01-11T08:15:36.237Z,86
2024-01-11T08:16:52.198Z,86.1
2024-01-11T08:18:08.394Z,86
2024-01-11T08:19:23.607Z,85.8
2024-01-11T08:20:39.802Z,85.6
2024-01-11T08:21:55.999Z,85.5
2024-01-11T08:23:12.195Z,85.3
2024-01-11T08:24:28.391Z,85.4
2024-01-11T08:25:41.000Z,85.3
2024-01-11T08:27:00.784Z,85.2
2024-01-11T08:28:17.220Z,85
2024-01-11T08:29:33.177Z,84.8
2024-01-11T08:30:49.373Z,84.7
2024-01-11T08:32:05.570Z,84.5
2024-01-11T08:33:14.000Z,84
2024-01-11T08:33:21.766Z,84.3
2024-01-11T08:34:37.962Z,84.2
2024-01-11T08:37:09.372Z,84.5
2024-01-11T08:38:22.000Z,84.2
2024-01-11T08:39:41.764Z,84.2
2024-01-11T08:40:57.960Z,84.1
2024-01-11T08:42:14.157Z,83.9
2024-01-11T08:43:30.353Z,83.8
2024-01-11T08:44:46.550Z,83.7
2024-01-11T08:46:02.746Z,83.8
2024-01-11T08:47:18.942Z,83.9
2024-01-11T08:48:35.138Z,84
2024-01-11T08:49:51.335Z,84
2024-01-11T08:51:00.000Z,83.6
2024-01-11T08:51:07.531Z,83.7
2024-01-11T08:52:22.744Z,83.4
2024-01-11T08:54:55.136Z,83.7
2024-01-11T08:56:05.000Z,82.9
2024-01-11T08:56:11.332Z,83.1
2024-01-11T08:57:27.528Z,83.1
2024-01-11T08:59:59.921Z,82.7
2024-01-11T09:01:09.000Z,81.9
2024-01-11T09:01:13.000Z,82.2
2024-01-11T09:02:32.313Z,82
2024-01-11T09:05:04.706Z,81.9
2024-01-11T09:06:20.902Z,81.7
2024-01-11T09:07:37.099Z,81.3
2024-01-11T09:08:52.311Z,81.1
2024-01-11T09:10:08.507Z,81.1
2024-01-11T09:11:24.703Z,81.7
2024-01-11T09:12:40.900Z,81.2
2024-01-11T09:13:57.096Z,81
2024-01-11T09:15:13.293Z,81.1
2024-01-11T09:16:28.510Z,81.3
2024-01-11T09:17:44.707Z,81.3
2024-01-11T09:19:00.903Z,80.6
2024-01-11T09:20:17.336Z,80.4
2024-01-11T09:21:33.296Z,80.6
2024-01-11T09:22:49.492Z,80.5
2024-01-11T09:24:05.688Z,80.7
2024-01-11T09:25:21.885Z,80.5
2024-01-11T09:26:31.000Z,79.2
2024-01-11T09:26:35.000Z,80.4
2024-01-11T09:27:54.278Z,79.9
2024-01-11T09:30:26.671Z,78.4
2024-01-11T09:31:42.867Z,77.8
2024-01-11T09:32:58.080Z,77.5
2024-01-11T09:34:14.276Z,77.3
2024-01-11T09:35:30.472Z,77.3
2024-01-11T09:36:46.668Z,77.4
2024-01-11T09:38:02.865Z,77.5
2024-01-11T09:39:19.061Z,77.5
2024-01-11T09:40:35.258Z,77.8
2024-01-11T09:41:45.000Z,78.1
2024-01-11T09:41:51.454Z,78
2024-01-11T09:43:07.651Z,78
2024-01-11T09:44:17.000Z,78
2024-01-11T09:45:40.044Z,78.1
2024-01-11T09:48:12.437Z,77.3
2024-01-11T09:49:24.000Z,77
2024-01-11T09:50:43.846Z,76.6
2024-01-11T09:52:00.043Z,76.9
2024-01-11T09:53:16.239Z,76.5
2024-01-11T09:54:32.436Z,76
2024-01-11T09:55:48.632Z,75.7
2024-01-11T09:57:04.829Z,75.7
2024-01-11T09:58:21.025Z,75.7
2024-01-11T09:59:37.222Z,75.6
2024-01-11T10:00:53.419Z,75.8
2024-01-11T10:02:06.000Z,76
2024-01-11T10:03:25.812Z,76.1
2024-01-11T10:04:42.008Z,75.8
2024-01-11T10:05:57.220Z,75.7
2024-01-11T10:07:07.000Z,76
2024-01-11T10:07:13.416Z,75.9
2024-01-11T10:08:29.613Z,76.3
2024-01-11T10:11:02.007Z,75.5
2024-01-11T10:12:18.204Z,75.5
2024-01-11T10:13:34.401Z,75.6
2024-01-11T10:14:50.597Z,75.6
2024-01-11T10:16:06.794Z,74.4
2024-01-11T10:17:16.000Z,74
2024-01-11T10:17:22.990Z,74.3
2024-01-11T10:18:39.187Z,74.1
2024-01-11T10:21:11.580Z,73.6
2024-01-11T10:22:26.792Z,74
2024-01-11T10:23:42.989Z,73.8
2024-01-11T10:24:52.000Z,73.4
2024-01-11T10:24:59.185Z,73.3
2024-01-11T10:26:15.382Z,73.2
2024-01-11T10:28:47.775Z,73.4
2024-01-11T10:30:03.971Z,73.5
2024-01-11T10:31:20.168Z,73.5
2024-01-11T10:32:36.364Z,73.5
2024-01-11T10:33:52.561Z,73.5
2024-01-11T10:35:08.757Z,73.4
2024-01-11T10:36:24.954Z,73.5
2024-01-11T10:37:41.150Z,73.4
2024-01-11T10:38:56.363Z,73
2024-01-11T10:40:12.560Z,73
2024-01-11T10:41:20.000Z,72.7
2024-01-11T10:41:28.757Z,72.8
2024-01-11T10:42:43.980Z,72.7
2024-01-11T10:45:14.417Z,72.7
2024-01-11T10:46:30.615Z,72.6
2024-01-11T10:47:46.811Z,72.6
2024-01-11T10:49:03.008Z,72.8
2024-01-11T10:50:19.205Z,73
2024-01-11T10:51:35.402Z,72.7
2024-01-11T10:52:51.598Z,72.5
2024-01-11T10:54:07.796Z,72.5
2024-01-11T10:55:23.993Z,72.8
2024-01-11T10:56:33.000Z,72.1
2024-01-11T10:56:40.191Z,72.5
2024-01-11T10:57:50.000Z,72.5
2024-01-11T10:57:56.387Z,72.2
2024-01-11T11:01:43.993Z,72.6
2024-01-11T11:03:00.190Z,72.9
2024-01-11T11:04:16.387Z,73.2
2024-01-11T11:05:32.584Z,72.6
2024-01-11T11:06:48.781Z,72.6
2024-01-11T11:08:04.978Z,72.6
2024-01-11T11:09:21.175Z,72.4
2024-01-11T11:10:37.371Z,72.5
2024-01-11T11:11:47.000Z,72.2
2024-01-11T11:11:53.568Z,72.2
2024-01-11T11:13:09.765Z,72.4
2024-01-11T11:15:42.159Z,72.2
2024-01-11T11:16:58.356Z,72.1
2024-01-11T11:18:13.569Z,72.6
2024-01-11T11:19:29.766Z,72.7
2024-01-11T11:20:45.963Z,72.4
2024-01-11T11:22:02.161Z,72.1
2024-01-11T11:23:18.358Z,71.9
2024-01-11T11:24:34.557Z,71.5
2024-01-11T11:25:50.754Z,71.7
2024-01-11T11:27:06.952Z,71.9
2024-01-11T11:28:16.000Z,71.7
2024-01-11T11:28:23.149Z,71.7
2024-01-11T11:29:39.346Z,71.4
2024-01-11T11:32:11.741Z,71.3
2024-01-11T11:33:27.938Z,71.2
2024-01-11T11:34:43.151Z,71.6
2024-01-11T11:35:59.348Z,71.4
2024-01-11T11:37:15.546Z,71.9
2024-01-11T11:38:31.743Z,71.6
2024-01-11T11:39:47.940Z,71.6
2024-01-11T11:41:04.137Z,71.8
2024-01-11T11:43:30.000Z,72.3
2024-01-11T11:43:36.532Z,72.1
2024-01-11T11:44:52.729Z,72.3
2024-01-11T11:47:25.124Z,72.9
2024-01-11T11:48:41.321Z,72.6
2024-01-11T11:51:13.715Z,72.7
2024-01-11T11:53:45.126Z,72.6
2024-01-11T11:55:01.324Z,72.5
2024-01-11T11:56:16.548Z,72.7
2024-01-11T11:58:47.959Z,73.4
2024-01-11T12:00:04.156Z,73.8
2024-01-11T12:01:20.353Z,73.2
2024-01-11T12:02:36.551Z,73.3
2024-01-11T12:03:52.748Z,73.2
2024-01-11T12:05:08.945Z,73.2
2024-01-11T12:06:18.000Z,72.7
2024-01-11T12:06:25.142Z,73.3
2024-01-11T12:07:41.340Z,72.7
2024-01-11T12:10:13.735Z,72.6
2024-01-11T12:11:22.000Z,72.7
2024-01-11T12:11:29.931Z,72.5
2024-01-11T12:12:46.129Z,72.4
2024-01-11T12:13:55.000Z,72.7
2024-01-11T12:15:17.540Z,72.8
2024-01-11T12:16:27.000Z,72.2
2024-01-11T12:17:49.934Z,72.4
2024-01-11T12:18:59.000Z,72.7
2024-01-11T12:20:22.328Z,72.1
2024-01-11T12:21:30.000Z,72.6
2024-01-11T12:22:53.749Z,72.6
2024-01-11T12:24:02.000Z,72.7
2024-01-11T12:25:25.159Z,72.8
2024-01-11T12:27:57.553Z,72.2
2024-01-11T12:29:13.749Z,72
2024-01-11T12:30:23.000Z,71.8
2024-01-11T12:30:29.947Z,72.2
2024-01-11T12:31:46.143Z,72
2024-01-11T12:34:18.538Z,71.7
2024-01-11T12:35:34.735Z,71.9
2024-01-11T12:36:44.000Z,71.6
2024-01-11T12:36:50.932Z,71.6
2024-01-11T12:38:07.130Z,71.5
2024-01-11T12:39:16.000Z,71.5
2024-01-11T12:40:38.540Z,72.1
2024-01-11T12:43:10.933Z,71.3
2024-01-11T12:44:27.129Z,71.7
2024-01-11T12:45:37.000Z,71
2024-01-11T12:45:43.327Z,71.4
2024-01-11T12:46:53.000Z,70.7
2024-01-11T12:46:59.523Z,71.2
2024-01-11T12:49:25.000Z,70.9
2024-01-11T12:50:48.113Z,70.9
2024-01-11T12:53:20.507Z,71.1
2024-01-11T12:54:36.704Z,71.4
2024-01-11T12:55:52.902Z,71.2
2024-01-11T12:57:08.113Z,71.3
2024-01-11T12:58:24.310Z,71.7
2024-01-11T12:59:40.507Z,71.2
2024-01-11T13:02:12.900Z,70.5
2024-01-11T13:03:29.096Z,70.7
2024-01-11T13:04:39.000Z,70.1
2024-01-11T13:04:45.292Z,70.3
2024-01-11T13:06:01.490Z,70
2024-01-11T13:08:33.884Z,69.9
2024-01-11T13:09:50.080Z,70.2
2024-01-11T13:11:06.278Z,70.2
2024-01-11T13:12:22.474Z,69.9
2024-01-11T13:13:37.686Z,69.8
2024-01-11T13:14:47.000Z,69.8
2024-01-11T13:14:53.882Z,69.7
2024-01-11T13:16:10.080Z,69.6
2024-01-11T13:17:19.000Z,69.8
2024-01-11T13:18:42.472Z,70
2024-01-11T13:21:14.865Z,69.9
2024-01-11T13:22:24.000Z,70
2024-01-11T13:22:31.061Z,69.8
2024-01-11T13:23:47.258Z,70.4
2024-01-11T13:26:19.651Z,70.3
2024-01-11T13:27:35.847Z,70.1
2024-01-11T13:28:52.043Z,70.1
2024-01-11T13:30:07.256Z,70
2024-01-11T13:31:22.474Z,70.1
2024-01-11T13:32:38.671Z,70.3
2024-01-11T13:33:54.868Z,70.5
2024-01-11T13:35:11.063Z,70.5
2024-01-11T13:36:27.260Z,70.3
2024-01-11T13:37:43.456Z,70.1
2024-01-11T13:38:53.000Z,70.7
2024-01-11T13:38:59.652Z,70.6
2024-01-11T13:40:15.848Z,70.7
2024-01-11T13:42:41.000Z,70
2024-01-11T13:42:48.240Z,70.6
2024-01-11T13:44:04.437Z,70.1
2024-01-11T13:46:36.829Z,70
2024-01-11T13:47:52.041Z,69.8
2024-01-11T13:49:08.238Z,69.6
2024-01-11T13:50:18.000Z,67.9
2024-01-11T13:50:24.434Z,68.3
2024-01-11T13:51:40.632Z,67.8
2024-01-11T13:54:13.024Z,67.8
2024-01-11T13:55:29.219Z,67.9
2024-01-11T13:56:45.417Z,68.1
2024-01-11T13:58:01.613Z,68.3
2024-01-11T13:59:17.810Z,68.2
2024-01-11T14:00:34.006Z,68.6
2024-01-11T14:01:50.202Z,68.2
2024-01-11T14:03:06.397Z,68.2
2024-01-11T14:04:21.611Z,68.3
2024-01-11T14:05:37.807Z,68.4
2024-01-11T14:06:54.003Z,68.6
2024-01-11T14:08:03.000Z,69.3
2024-01-11T14:08:10.199Z,68.5
2024-01-11T14:09:26.395Z,68.7
2024-01-11T14:11:58.786Z,69
2024-01-11T14:13:14.981Z,69.3
2024-01-11T14:14:31.179Z,69.3
2024-01-11T14:15:47.375Z,69.1
2024-01-11T14:17:03.572Z,69.3
2024-01-11T14:18:19.768Z,69.5
2024-01-11T14:19:35.965Z,69.8
2024-01-11T14:20:44.000Z,69.3
2024-01-11T14:20:51.177Z,69.3
2024-01-11T14:22:07.375Z,69.3
2024-01-11T14:24:39.767Z,69.3
2024-01-11T14:25:55.964Z,69.6
2024-01-11T14:27:12.161Z,69.9
2024-01-11T14:28:28.357Z,70
2024-01-11T14:29:44.555Z,69.8
2024-01-11T14:31:00.751Z,70.1
2024-01-11T14:32:16.949Z,70.2
2024-01-11T14:33:26.000Z,70.4
2024-01-11T14:33:33.144Z,70.3
2024-01-11T14:34:49.342Z,70.3
2024-01-11T14:37:20.750Z,70.4
2024-01-11T14:38:30.000Z,70.8
2024-01-11T14:38:36.947Z,70.4
2024-01-11T14:39:53.145Z,70.6
2024-01-11T14:42:25.539Z,71.2
2024-01-11T14:43:35.000Z,71
2024-01-11T14:43:41.735Z,70.9
2024-01-11T14:44:57.932Z,70.9
2024-01-11T14:47:23.000Z,71.2
2024-01-11T14:47:30.326Z,71.3
2024-01-11T14:48:46.522Z,71.2
2024-01-11T14:51:18.915Z,71.3
2024-01-11T14:52:35.113Z,71.5
2024-01-11T14:53:50.325Z,71.3
2024-01-11T14:55:06.523Z,71.3
2024-01-11T14:56:22.720Z,71.3
2024-01-11T14:57:38.918Z,71.2
2024-01-11T14:58:55.114Z,71.5
2024-01-11T15:00:11.311Z,71.6
2024-01-11T15:01:27.508Z,71.7
2024-01-11T15:02:43.706Z,71.7
2024-01-11T15:03:59.902Z,71.8
2024-01-11T15:05:16.100Z,71.8
2024-01-11T15:06:32.296Z,72.1
2024-01-11T15:07:48.493Z,72
2024-01-11T15:09:04.689Z,72.2
2024-01-11T15:10:19.902Z,72.2
2024-01-11T15:11:36.099Z,72.3
2024-01-11T15:12:52.297Z,72.4
2024-01-11T15:14:08.493Z,72.7
2024-01-11T15:15:24.687Z,72.7
2024-01-11T15:16:40.882Z,72.7
2024-01-11T15:17:57.076Z,72.8
2024-01-11T15:19:13.271Z,72.8
2024-01-11T15:20:29.465Z,72.8
2024-01-11T15:21:45.660Z,72.9
2024-01-11T15:23:01.855Z,73.1
2024-01-11T15:24:18.050Z,73.4
2024-01-11T15:25:34.245Z,73.4
2024-01-11T15:26:49.456Z,73.7
2024-01-11T15:28:05.651Z,73.8
2024-01-11T15:29:21.847Z,74
2024-01-11T15:30:38.042Z,74.1
2024-01-11T15:31:54.236Z,74.3
2024-01-11T15:33:10.431Z,74.3
2024-01-11T15:34:26.626Z,74.3
2024-01-11T15:35:42.822Z,74.4
2024-01-11T15:36:59.017Z,74.5
2024-01-11T15:38:15.212Z,74.5
2024-01-11T15:39:31.408Z,74.6
2024-01-11T15:40:47.602Z,74.6
2024-01-11T15:42:03.798Z,74.8
2024-01-11T15:43:19.010Z,74.8
2024-01-11T15:44:35.204Z,74.7
2024-01-11T15:45:51.399Z,74.9
2024-01-11T15:47:07.594Z,74.9
2024-01-11T15:48:23.789Z,75
2024-01-11T15:49:39.985Z,75.2
2024-01-11T15:50:56.180Z,75.3
2024-01-11T15:52:12.375Z,75.2
2024-01-11T15:53:28.570Z,75.2
2024-01-11T15:54:44.765Z,75.4
2024-01-11T15:56:00.960Z,75.5
2024-01-11T15:57:14.000Z,75.6
2024-01-11T15:58:33.349Z,75.8
2024-01-11T15:59:48.559Z,75.8
2024-01-11T16:01:04.754Z,76
2024-01-11T16:02:20.949Z,76
2024-01-11T16:03:37.143Z,76
2024-01-11T16:04:53.338Z,76
2024-01-11T16:06:09.533Z,76
2024-01-11T16:07:25.728Z,75.8
2024-01-11T16:08:41.924Z,75.7
2024-01-11T16:09:58.119Z,75.6
2024-01-11T16:11:14.313Z,75.6
2024-01-11T16:12:30.508Z,75.5
2024-01-11T16:13:46.703Z,75.5
2024-01-11T16:15:02.898Z,75.6
2024-01-11T16:16:18.108Z,75.6
2024-01-11T16:17:34.302Z,75.6
2024-01-11T16:18:50.497Z,75.4
2024-01-11T16:20:06.691Z,75.5
2024-01-11T16:21:22.886Z,75.6
2024-01-11T16:22:39.080Z,75.5
2024-01-11T16:23:55.275Z,75.7
2024-01-11T16:25:11.471Z,75.7
2024-01-11T16:26:27.665Z,75.7
2024-01-11T16:27:43.861Z,75.7
2024-01-11T16:29:00.056Z,75.6
2024-01-11T16:30:16.250Z,75.6
2024-01-11T16:31:32.445Z,75.8
2024-01-11T16:32:47.656Z,75.6
2024-01-11T16:34:03.851Z,75.6
2024-01-11T16:35:20.046Z,75.7
2024-01-11T16:36:36.241Z,75.7
2024-01-11T16:37:52.436Z,75.7
2024-01-11T16:39:08.632Z,75.7
2024-01-11T16:40:24.827Z,75.6
2024-01-11T16:41:41.023Z,75.5
2024-01-11T16:42:57.218Z,75.6
2024-01-11T16:44:13.412Z,75.3
2024-01-11T16:45:29.607Z,75.4
2024-01-11T16:46:45.802Z,75.4
2024-01-11T16:48:01.998Z,75.5
2024-01-11T16:49:17.209Z,75.4
2024-01-11T16:50:33.404Z,75
2024-01-11T16:51:49.599Z,75
2024-01-11T16:53:05.794Z,74.9
2024-01-11T16:54:21.989Z,74.8
2024-01-11T16:55:38.184Z,74.8
2024-01-11T16:56:54.379Z,74.9
2024-01-11T16:58:10.574Z,74.9
2024-01-11T16:59:26.769Z,74.9
2024-01-11T17:00:42.965Z,74.9
2024-01-11T17:01:59.160Z,75
2024-01-11T17:03:15.355Z,75.1
2024-01-11T17:04:31.550Z,75.1
2024-01-11T17:05:46.761Z,75.1